createdAt,value
2022-10-18T00:00:58.020Z,18.64
2022-10-18T00:03:25.822Z,18.71
2022-10-18T00:05:53.812Z,18.54
2022-10-18T00:08:22.891Z,18.56
2022-10-18T00:10:51.217Z,18.64
2022-10-18T00:13:19.149Z,18.69
2022-10-18T00:15:51.286Z,18.79
2022-10-18T00:18:19.562Z,18.80
2022-10-18T00:20:56.769Z,18.80
2022-10-18T00:23:26.051Z,18.76
2022-10-18T00:26:00.666Z,18.84
2022-10-18T00:28:28.885Z,18.91
2022-10-18T00:30:56.702Z,18.90
2022-10-18T00:33:24.511Z,18.88
2022-10-18T00:35:52.194Z,18.96
2022-10-18T00:38:19.960Z,19.03
2022-10-18T00:40:49.019Z,19.00
2022-10-18T00:43:19.200Z,18.99
2022-10-18T00:45:46.930Z,18.99
2022-10-18T00:48:16.453Z,18.98
2022-10-18T00:50:44.598Z,19.01
2022-10-18T00:53:17.285Z,19.03
2022-10-18T00:55:45.416Z,18.95
2022-10-18T00:58:17.991Z,18.92
2022-10-18T01:00:45.861Z,18.78
2022-10-18T01:03:13.604Z,18.88
2022-10-18T01:05:44.926Z,19.00
2022-10-18T01:08:29.816Z,19.02
2022-10-18T01:11:11.025Z,19.04
2022-10-18T01:13:51.341Z,19.04
2022-10-18T01:16:28.218Z,18.93
2022-10-18T01:19:02.579Z,19.01
2022-10-18T01:21:39.301Z,18.89
2022-10-18T01:24:44.948Z,18.98
2022-10-18T01:27:28.960Z,19.01
2022-10-18T01:30:13.463Z,19.01
2022-10-18T01:32:48.293Z,18.99
2022-10-18T01:35:21.040Z,18.97
2022-10-18T01:37:51.823Z,18.94
2022-10-18T01:40:21.918Z,18.93
2022-10-18T01:42:50.907Z,19.01
2022-10-18T01:45:20.092Z,19.00
2022-10-18T01:47:50.605Z,18.98
2022-10-18T01:50:29.613Z,19.01
2022-10-18T01:52:57.576Z,19.00
2022-10-18T01:55:30.413Z,19.09
2022-10-18T01:58:06.922Z,19.10
2022-10-18T02:00:42.069Z,19.04
2022-10-18T02:03:18.630Z,19.11
2022-10-18T02:05:52.729Z,19.08
2022-10-18T02:08:29.717Z,18.96
2022-10-18T02:11:01.915Z,19.00
2022-10-18T02:13:34.682Z,18.97
2022-10-18T02:16:07.193Z,18.96
2022-10-18T02:18:41.397Z,18.96
2022-10-18T02:21:12.499Z,19.02
2022-10-18T02:23:40.468Z,19.10
2022-10-18T02:26:08.412Z,19.08
2022-10-18T02:28:36.221Z,19.07
2022-10-18T02:31:12.755Z,18.84
2022-10-18T02:33:48.907Z,18.77
2022-10-18T02:36:21.063Z,18.96
2022-10-18T02:38:51.917Z,18.80
2022-10-18T02:41:24.081Z,18.89
2022-10-18T02:43:51.827Z,18.68
2022-10-18T02:46:19.708Z,18.77
2022-10-18T02:48:48.856Z,18.82
2022-10-18T02:51:16.570Z,18.95
2022-10-18T02:53:44.313Z,18.99
2022-10-18T02:56:12.035Z,18.90
2022-10-18T02:58:39.760Z,18.99
2022-10-18T03:01:07.547Z,19.02
2022-10-18T03:03:35.289Z,18.98
2022-10-18T03:06:04.465Z,19.05
2022-10-18T03:08:32.169Z,18.98
2022-10-18T03:10:59.965Z,18.99
2022-10-18T03:13:27.633Z,18.99
2022-10-18T03:15:55.401Z,18.84
2022-10-18T03:18:23.061Z,18.88
2022-10-18T03:20:50.814Z,18.98
2022-10-18T03:23:19.842Z,18.72
2022-10-18T03:25:47.597Z,18.86
2022-10-18T03:28:15.326Z,18.98
2022-10-18T03:30:43.074Z,19.00
2022-10-18T03:33:10.757Z,19.05
2022-10-18T03:35:38.526Z,19.08
2022-10-18T03:38:06.185Z,19.00
2022-10-18T03:40:35.301Z,18.93
2022-10-18T03:43:02.979Z,18.97
2022-10-18T03:45:31.532Z,19.07
2022-10-18T03:47:59.534Z,19.14
2022-10-18T03:50:27.231Z,19.22
2022-10-18T03:52:55.460Z,19.20
2022-10-18T03:55:23.454Z,19.19
2022-10-18T03:57:52.499Z,19.19
2022-10-18T04:00:20.362Z,19.30
2022-10-18T04:02:51.912Z,19.31
2022-10-18T04:05:23.918Z,19.07
2022-10-18T04:07:51.656Z,19.31
2022-10-18T04:10:19.838Z,19.30
2022-10-18T04:12:47.530Z,19.43
2022-10-18T04:15:16.797Z,19.21
2022-10-18T04:17:44.535Z,19.19
2022-10-18T04:20:13.293Z,19.19
2022-10-18T04:22:40.987Z,19.05
2022-10-18T04:25:09.001Z,19.27
2022-10-18T04:27:36.910Z,19.22
2022-10-18T04:30:05.195Z,19.11
2022-10-18T04:32:35.368Z,19.19
2022-10-18T04:35:03.418Z,19.36
2022-10-18T04:37:31.577Z,19.47
2022-10-18T04:39:59.522Z,19.35
2022-10-18T04:42:27.182Z,19.30
2022-10-18T04:44:54.954Z,19.36
2022-10-18T04:47:22.721Z,19.42
2022-10-18T04:49:51.775Z,19.35
2022-10-18T04:52:19.470Z,19.40
2022-10-18T04:54:47.155Z,19.40
2022-10-18T04:57:14.977Z,19.39
2022-10-18T04:59:42.643Z,19.46
2022-10-18T05:02:10.338Z,19.42
2022-10-18T05:04:38.063Z,19.40
2022-10-18T05:07:07.227Z,19.38
2022-10-18T05:09:35.017Z,19.32
2022-10-18T05:12:02.698Z,19.30
2022-10-18T05:14:30.412Z,19.22
2022-10-18T05:16:58.137Z,19.24
2022-10-18T05:19:25.931Z,19.12
2022-10-18T05:21:53.670Z,19.04
2022-10-18T05:24:25.453Z,19.22
2022-10-18T05:26:55.409Z,19.23
2022-10-18T05:29:23.259Z,19.11
2022-10-18T05:31:51.205Z,19.19
2022-10-18T05:34:20.604Z,19.20
2022-10-18T05:36:49.401Z,19.23
2022-10-18T05:39:17.105Z,19.23
2022-10-18T05:41:46.185Z,19.21
2022-10-18T05:44:13.892Z,19.29
2022-10-18T05:46:41.614Z,19.35
2022-10-18T05:49:11.202Z,19.31
2022-10-18T05:51:38.987Z,19.24
2022-10-18T05:54:06.742Z,19.15
2022-10-18T05:56:34.526Z,19.13
2022-10-18T05:59:05.038Z,19.11
2022-10-18T06:01:32.719Z,19.18
2022-10-18T06:04:00.448Z,19.15
2022-10-18T06:06:28.202Z,19.00
2022-10-18T06:08:55.922Z,19.21
2022-10-18T06:11:23.586Z,19.07
2022-10-18T06:13:52.921Z,19.12
2022-10-18T06:16:26.201Z,19.12
2022-10-18T06:18:59.782Z,19.03
2022-10-18T06:21:27.601Z,18.80
2022-10-18T06:23:57.600Z,18.98
2022-10-18T06:26:26.646Z,18.89
2022-10-18T06:28:54.562Z,18.86
2022-10-18T06:31:23.804Z,18.89
2022-10-18T06:33:51.566Z,18.81
2022-10-18T06:36:22.001Z,18.83
2022-10-18T06:38:50.556Z,18.83
2022-10-18T06:41:19.192Z,18.90
2022-10-18T06:43:49.800Z,18.91
2022-10-18T06:46:17.753Z,18.76
2022-10-18T06:48:47.385Z,18.71
2022-10-18T06:51:15.209Z,18.70
2022-10-18T06:53:59.297Z,18.81
2022-10-18T06:56:31.560Z,18.75
2022-10-18T07:01:32.111Z,18.83
2022-10-18T07:04:01.269Z,18.78
2022-10-18T07:06:29.074Z,18.74
2022-10-18T07:08:57.250Z,18.76
2022-10-18T07:11:27.114Z,18.76
2022-10-18T07:14:00.691Z,18.83
2022-10-18T07:16:28.473Z,18.90
2022-10-18T07:18:56.250Z,18.93
2022-10-18T07:21:27.105Z,18.87
2022-10-18T07:23:55.002Z,18.83
2022-10-18T07:26:25.201Z,18.95
2022-10-18T07:28:55.741Z,18.99
2022-10-18T07:31:24.313Z,19.02
2022-10-18T07:33:52.175Z,18.90
2022-10-18T07:36:21.162Z,18.93
2022-10-18T07:38:51.824Z,19.00
2022-10-18T07:41:20.273Z,19.00
2022-10-18T07:43:50.732Z,18.97
2022-10-18T07:46:19.280Z,18.99
2022-10-18T07:48:47.180Z,18.97
2022-10-18T07:51:15.340Z,18.81
2022-10-18T07:53:43.325Z,18.99
2022-10-18T07:56:16.272Z,19.06
2022-10-18T07:58:44.509Z,18.88
2022-10-18T08:01:12.377Z,19.06
2022-10-18T08:03:40.830Z,18.98
2022-10-18T08:06:10.824Z,19.06
2022-10-18T08:08:39.850Z,19.24
2022-10-18T08:11:09.715Z,19.16
2022-10-18T08:13:38.904Z,19.33
2022-10-18T08:16:08.445Z,19.56
2022-10-18T08:18:37.025Z,19.60
2022-10-18T08:21:06.765Z,19.67
2022-10-18T08:23:35.638Z,19.81
2022-10-18T08:26:04.227Z,19.83
2022-10-18T08:28:31.983Z,19.84
2022-10-18T08:31:04.904Z,19.79
2022-10-18T08:33:32.789Z,19.84
2022-10-18T08:36:02.071Z,19.92
2022-10-18T08:38:31.555Z,19.84
2022-10-18T08:41:01.041Z,19.67
2022-10-18T08:46:13.620Z,20.10
2022-10-18T08:48:45.281Z,19.87
2022-10-18T08:51:23.427Z,19.83
2022-10-18T08:53:58.110Z,19.88
2022-10-18T08:56:26.840Z,19.98
2022-10-18T08:58:54.516Z,20.06
2022-10-18T09:01:36.318Z,19.86
2022-10-18T09:04:34.839Z,19.89
2022-10-18T09:07:24.026Z,19.91
2022-10-18T09:09:56.980Z,19.85
2022-10-18T09:12:52.491Z,19.95
2022-10-18T09:15:29.330Z,19.71
2022-10-18T09:18:14.516Z,19.75
2022-10-18T09:20:51.076Z,19.81
2022-10-18T09:23:21.453Z,19.89
2022-10-18T09:25:51.141Z,20.00
2022-10-18T09:28:33.250Z,19.77
2022-10-18T09:31:08.196Z,19.93
2022-10-18T09:33:44.930Z,20.24
2022-10-18T09:36:18.741Z,20.11
2022-10-18T09:38:49.478Z,20.11
2022-10-18T09:41:21.674Z,20.04
2022-10-18T09:43:53.921Z,20.44
2022-10-18T09:46:26.138Z,20.28
2022-10-18T09:49:00.864Z,20.57
2022-10-18T09:51:34.737Z,20.69
2022-10-18T09:54:15.088Z,20.87
2022-10-18T09:56:48.436Z,20.60
2022-10-18T09:59:30.989Z,21.04
2022-10-18T10:01:58.635Z,20.71
2022-10-18T10:04:27.842Z,20.82
2022-10-18T10:06:57.511Z,20.47
2022-10-18T10:09:29.441Z,20.36
2022-10-18T10:11:58.382Z,20.50
2022-10-18T10:14:27.960Z,20.57
2022-10-18T10:16:58.689Z,20.42
2022-10-18T10:19:33.702Z,20.47
2022-10-18T10:22:06.495Z,20.32
2022-10-18T10:24:40.010Z,20.45
2022-10-18T10:27:17.653Z,20.17
2022-10-18T10:30:02.761Z,20.09
2022-10-18T10:32:47.057Z,19.94
2022-10-18T10:35:41.406Z,20.01
2022-10-18T10:38:23.940Z,20.16
2022-10-18T10:40:52.036Z,20.13
2022-10-18T10:43:36.961Z,20.08
2022-10-18T10:46:09.656Z,20.22
2022-10-18T10:48:46.568Z,20.27
2022-10-18T10:51:18.669Z,20.24
2022-10-18T10:53:52.236Z,20.18
2022-10-18T10:56:25.129Z,20.36
2022-10-18T10:58:54.892Z,20.23
2022-10-18T11:01:32.189Z,20.48
2022-10-18T11:04:02.558Z,20.57
2022-10-18T11:06:46.178Z,20.62
2022-10-18T11:09:25.410Z,20.61
2022-10-18T11:12:02.545Z,20.52
2022-10-18T11:14:35.914Z,20.61
2022-10-18T11:17:12.956Z,20.66
2022-10-18T11:19:51.223Z,20.59
2022-10-18T11:22:26.874Z,20.59
2022-10-18T11:24:54.733Z,20.48
2022-10-18T11:27:29.177Z,20.72
2022-10-18T11:30:19.291Z,20.62
2022-10-18T11:32:59.433Z,20.87
2022-10-18T11:35:40.475Z,20.77
2022-10-18T11:38:22.500Z,20.68
2022-10-18T11:41:02.171Z,20.73
2022-10-18T11:44:00.485Z,20.83
2022-10-18T11:46:47.929Z,21.02
2022-10-18T11:49:47.201Z,21.39
2022-10-18T11:52:22.273Z,21.13
2022-10-18T11:55:02.537Z,21.33
2022-10-18T11:57:44.498Z,21.31
2022-10-18T12:00:40.397Z,21.48
2022-10-18T12:03:26.440Z,21.41
2022-10-18T12:05:56.603Z,21.53
2022-10-18T12:08:29.209Z,21.87
2022-10-18T12:11:05.740Z,21.75
2022-10-18T12:13:37.802Z,21.46
2022-10-18T12:16:07.890Z,21.15
2022-10-18T12:21:30.241Z,21.09
2022-10-18T12:24:02.392Z,20.78
2022-10-18T12:26:34.012Z,20.96
2022-10-18T12:29:14.124Z,20.98
2022-10-18T12:31:46.747Z,21.28
2022-10-18T12:34:27.141Z,21.22
2022-10-18T12:37:21.282Z,21.53
2022-10-18T12:42:45.059Z,21.74
2022-10-18T12:45:26.154Z,21.47
2022-10-18T12:47:54.435Z,21.37
2022-10-18T12:50:30.337Z,21.23
2022-10-18T12:53:18.058Z,21.52
2022-10-18T12:55:47.606Z,21.68
2022-10-18T12:58:32.010Z,21.58
2022-10-18T13:01:06.963Z,21.56
2022-10-18T13:04:00.386Z,21.61
2022-10-18T13:07:07.871Z,21.62
2022-10-18T13:09:38.606Z,21.60
2022-10-18T13:12:51.248Z,21.50
2022-10-18T13:15:38.690Z,21.56
2022-10-18T13:18:19.698Z,21.52
2022-10-18T13:20:55.393Z,21.57
2022-10-18T13:23:38.395Z,21.78
2022-10-18T13:26:18.647Z,21.67
2022-10-18T13:28:54.889Z,21.33
2022-10-18T13:31:29.259Z,21.20
2022-10-18T13:34:17.306Z,21.39
2022-10-18T13:36:45.164Z,21.58
2022-10-18T13:39:21.140Z,21.74
2022-10-18T13:42:29.557Z,21.38
2022-10-18T13:45:38.798Z,21.59
2022-10-18T13:48:42.467Z,21.79
2022-10-18T13:51:31.422Z,21.70
2022-10-18T13:54:05.585Z,21.79
2022-10-18T13:57:11.343Z,21.78
2022-10-18T13:59:53.004Z,22.10
2022-10-18T14:02:51.828Z,21.70
2022-10-18T14:05:42.910Z,21.98
2022-10-18T14:08:17.781Z,22.04
2022-10-18T14:11:02.544Z,21.71
2022-10-18T14:13:39.834Z,22.04
2022-10-18T14:16:11.909Z,22.13
2022-10-18T14:18:43.746Z,22.21
2022-10-18T14:21:22.036Z,22.14
2022-10-18T14:23:52.058Z,22.46
2022-10-18T14:26:22.781Z,22.32
2022-10-18T14:29:04.228Z,22.58
2022-10-18T14:31:32.133Z,22.43
2022-10-18T14:34:00.480Z,22.74
2022-10-18T14:36:31.702Z,22.62
2022-10-18T14:39:02.515Z,22.43
2022-10-18T14:41:31.529Z,22.51
2022-10-18T14:44:18.483Z,22.47
2022-10-18T14:46:48.326Z,22.47
2022-10-18T14:49:17.096Z,22.55
2022-10-18T14:51:46.591Z,22.01
2022-10-18T14:54:18.449Z,22.11
2022-10-18T14:56:46.939Z,22.07
2022-10-18T14:59:20.238Z,22.14
2022-10-18T15:01:54.910Z,21.98
2022-10-18T15:04:27.777Z,22.03
2022-10-18T15:06:56.908Z,21.76
2022-10-18T15:09:26.414Z,22.10
2022-10-18T15:11:57.736Z,21.98
2022-10-18T15:14:28.364Z,22.15
2022-10-18T15:17:01.029Z,21.94
2022-10-18T15:19:34.187Z,22.03
2022-10-18T15:22:30.201Z,22.17
2022-10-18T15:25:12.638Z,22.06
2022-10-18T15:30:16.402Z,21.92
2022-10-18T15:32:50.502Z,22.10
2022-10-18T15:35:25.697Z,21.80
2022-10-18T15:37:54.623Z,21.92
2022-10-18T15:40:40.720Z,21.87
2022-10-18T15:43:37.113Z,21.82
2022-10-18T15:46:06.907Z,21.61
2022-10-18T15:48:38.835Z,21.68
2022-10-18T15:51:08.020Z,21.76
2022-10-18T15:53:46.789Z,21.78
2022-10-18T15:56:31.813Z,21.88
2022-10-18T15:59:01.137Z,21.88
2022-10-18T16:01:35.392Z,21.98
2022-10-18T16:04:08.990Z,21.85
2022-10-18T16:06:38.510Z,21.82
2022-10-18T16:09:06.613Z,21.63
2022-10-18T16:11:35.640Z,21.68
2022-10-18T16:14:03.481Z,21.50
2022-10-18T16:16:31.451Z,21.74
2022-10-18T16:18:59.369Z,21.70
2022-10-18T16:21:29.357Z,21.84
2022-10-18T16:23:57.639Z,21.69
2022-10-18T16:26:26.329Z,21.63
2022-10-18T16:28:57.146Z,21.52
2022-10-18T16:31:26.920Z,21.64
2022-10-18T16:33:55.856Z,21.44
2022-10-18T16:36:25.923Z,21.38
2022-10-18T16:38:54.904Z,21.53
2022-10-18T16:41:22.994Z,21.37
2022-10-18T16:43:51.417Z,21.19
2022-10-18T16:46:22.896Z,21.29
2022-10-18T16:48:52.469Z,21.28
2022-10-18T16:51:20.930Z,21.25
2022-10-18T16:53:48.945Z,21.16
2022-10-18T16:56:18.885Z,21.31
2022-10-18T16:58:47.349Z,21.30
2022-10-18T17:01:16.927Z,21.24
2022-10-18T17:03:46.271Z,21.13
2022-10-18T17:06:17.878Z,21.11
2022-10-18T17:08:46.165Z,21.19
2022-10-18T17:11:15.812Z,21.17
2022-10-18T17:13:43.915Z,21.16
2022-10-18T17:16:24.067Z,21.15
2022-10-18T17:18:53.354Z,21.05
2022-10-18T17:21:21.273Z,21.00
2022-10-18T17:23:49.497Z,20.96
2022-10-18T17:26:34.016Z,21.07
2022-10-18T17:29:04.678Z,21.12
2022-10-18T17:31:33.201Z,21.01
2022-10-18T17:34:02.413Z,20.91
2022-10-18T17:36:30.910Z,20.95
2022-10-18T17:38:59.133Z,20.87
2022-10-18T17:41:27.175Z,20.79
2022-10-18T17:43:54.981Z,20.78
2022-10-18T17:46:23.605Z,20.80
2022-10-18T17:48:51.384Z,20.83
2022-10-18T17:51:20.436Z,20.79
2022-10-18T17:53:48.294Z,20.86
2022-10-18T17:56:16.795Z,20.79
2022-10-18T17:58:45.267Z,20.79
2022-10-18T18:01:15.045Z,20.70
2022-10-18T18:03:42.889Z,20.74
2022-10-18T18:06:18.602Z,20.74
2022-10-18T18:08:48.708Z,20.71
2022-10-18T18:11:18.125Z,20.73
2022-10-18T18:13:46.038Z,20.65
2022-10-18T18:16:16.448Z,20.66
2022-10-18T18:18:44.347Z,20.66
2022-10-18T18:21:12.637Z,20.58
2022-10-18T18:23:40.553Z,20.58
2022-10-18T18:26:10.317Z,20.47
2022-10-18T18:28:38.379Z,20.57
2022-10-18T18:31:07.545Z,20.43
2022-10-18T18:33:35.482Z,20.57
2022-10-18T18:36:04.789Z,20.67
2022-10-18T18:38:33.377Z,20.60
2022-10-18T18:41:06.050Z,20.50
2022-10-18T18:43:35.606Z,20.49
2022-10-18T18:46:03.391Z,20.68
2022-10-18T18:48:33.224Z,20.63
2022-10-18T18:51:01.457Z,20.77
2022-10-18T18:53:29.935Z,20.70
2022-10-18T18:56:02.875Z,20.75
2022-10-18T18:58:30.561Z,20.77
2022-10-18T19:00:59.673Z,20.66
2022-10-18T19:03:27.407Z,20.76
2022-10-18T19:06:03.563Z,20.74
2022-10-18T19:08:31.232Z,20.62
2022-10-18T19:10:58.978Z,20.62
2022-10-18T19:13:26.654Z,20.57
2022-10-18T19:16:18.073Z,20.69
2022-10-18T19:18:51.475Z,20.62
2022-10-18T19:21:19.989Z,20.62
2022-10-18T19:23:47.754Z,20.53
2022-10-18T19:26:24.629Z,20.44
2022-10-18T19:28:52.931Z,20.62
2022-10-18T19:31:22.401Z,20.54
2022-10-18T19:33:59.432Z,20.57
2022-10-18T19:36:27.912Z,20.42
2022-10-18T19:38:55.680Z,20.53
2022-10-18T19:43:51.377Z,20.48
2022-10-18T19:46:19.183Z,20.40
2022-10-18T19:48:48.288Z,20.67
2022-10-18T19:51:20.895Z,20.31
2022-10-18T19:53:51.802Z,20.35
2022-10-18T19:56:21.605Z,20.47
2022-10-18T19:58:49.795Z,20.36
2022-10-18T20:01:18.388Z,20.35
2022-10-18T20:03:48.481Z,20.47
2022-10-18T20:06:16.982Z,20.51
2022-10-18T20:08:44.828Z,20.41
2022-10-18T20:11:14.923Z,20.36
2022-10-18T20:13:42.894Z,20.30
2022-10-18T20:16:12.571Z,20.45
2022-10-18T20:18:42.934Z,20.53
2022-10-18T20:21:13.569Z,20.40
2022-10-18T20:23:42.566Z,20.54
2022-10-18T20:26:18.311Z,20.47
2022-10-18T20:28:49.246Z,20.36
2022-10-18T20:31:19.588Z,20.55
2022-10-18T20:33:48.648Z,20.53
2022-10-18T20:36:19.802Z,20.65
2022-10-18T20:38:48.984Z,20.57
2022-10-18T20:41:19.113Z,20.53
2022-10-18T20:43:52.022Z,20.60
2022-10-18T20:46:19.709Z,20.57
2022-10-18T20:48:47.765Z,20.49
2022-10-18T20:51:17.213Z,20.55
2022-10-18T20:53:45.369Z,20.60
2022-10-18T20:56:14.901Z,20.64
2022-10-18T20:58:44.869Z,20.59
2022-10-18T21:01:14.691Z,20.64
2022-10-18T21:03:43.993Z,20.55
2022-10-18T21:06:13.231Z,20.62
2022-10-18T21:08:43.245Z,20.60
2022-10-18T21:11:11.306Z,20.56
2022-10-18T21:13:40.730Z,20.40
2022-10-18T21:16:08.836Z,20.40
2022-10-18T21:18:40.266Z,20.49
2022-10-18T21:21:09.956Z,20.33
2022-10-18T21:23:37.801Z,20.49
2022-10-18T21:26:07.920Z,20.48
2022-10-18T21:28:35.952Z,20.43
2022-10-18T21:31:12.643Z,20.33
2022-10-18T21:33:40.757Z,20.56
2022-10-18T21:36:09.119Z,20.37
2022-10-18T21:38:37.058Z,20.24
2022-10-18T21:41:10.856Z,20.33
2022-10-18T21:43:41.414Z,20.29
2022-10-18T21:46:10.953Z,20.19
2022-10-18T21:48:39.738Z,20.21
2022-10-18T21:51:08.588Z,20.07
2022-10-18T21:53:36.989Z,20.15
2022-10-18T21:56:06.246Z,20.26
2022-10-18T21:58:35.582Z,20.20
2022-10-18T22:01:07.131Z,20.29
2022-10-18T22:03:35.004Z,20.16
2022-10-18T22:06:04.920Z,20.04
2022-10-18T22:08:32.571Z,19.93
2022-10-18T22:11:01.025Z,20.12
2022-10-18T22:13:28.750Z,19.98
2022-10-18T22:16:00.997Z,20.03
2022-10-18T22:18:28.697Z,19.93
2022-10-18T22:20:56.854Z,19.82
2022-10-18T22:23:24.682Z,19.93
2022-10-18T22:25:52.405Z,19.79
2022-10-18T22:28:20.077Z,19.90
2022-10-18T22:30:48.201Z,20.02
2022-10-18T22:33:17.261Z,19.71
2022-10-18T22:35:50.015Z,19.92
2022-10-18T22:38:17.845Z,19.94
2022-10-18T22:40:45.629Z,19.88
2022-10-18T22:43:13.498Z,19.99
2022-10-18T22:45:41.341Z,20.03
2022-10-18T22:48:09.073Z,19.91
2022-10-18T22:50:38.125Z,20.00
2022-10-18T22:53:05.895Z,20.00
2022-10-18T22:55:33.624Z,19.97
2022-10-18T22:58:01.318Z,20.04
2022-10-18T23:00:29.313Z,19.98
2022-10-18T23:02:57.117Z,19.81
2022-10-18T23:05:24.837Z,19.82
2022-10-18T23:07:53.945Z,19.74
2022-10-18T23:10:21.641Z,19.78
2022-10-18T23:12:49.285Z,19.77
2022-10-18T23:15:17.074Z,19.65
2022-10-18T23:17:44.741Z,19.64
2022-10-18T23:20:12.511Z,19.69
2022-10-18T23:22:40.202Z,19.61
2022-10-18T23:25:10.166Z,19.72
2022-10-18T23:27:37.932Z,19.66
2022-10-18T23:30:06.913Z,19.88
2022-10-18T23:32:34.918Z,19.79
2022-10-18T23:35:02.891Z,19.74
2022-10-18T23:37:30.828Z,19.63
2022-10-18T23:39:58.672Z,19.68
2022-10-18T23:42:27.735Z,19.53
2022-10-18T23:44:55.522Z,19.73
2022-10-18T23:47:23.210Z,19.52
2022-10-18T23:49:50.956Z,19.49
2022-10-18T23:52:18.613Z,19.56
2022-10-18T23:54:46.364Z,19.65
2022-10-18T23:57:14.023Z,19.58
2022-10-18T23:59:43.120Z,19.60
